NCA4091 ZUUU-RJFU
Flight info
| Callsign | NCA4091 |
|---|---|
| Flight time | N/A |
| Altitude | 35100 |
| Route | UBRA9W UBRAB B213 WHA R343 PK A593 SADLI Y590 BEDAR Y591 FUE Y23 KASTE |
| Aircraft | B742/H-SDFGHIRWX/LB1 |
Departure
| Time | N/A |
|---|---|
| Airport | Chengdu Shuangliu International Airport (ZUUU) |
Arrival
| Time | 2026-04-29 21:28 |
|---|---|
| Airport | Nagasaki Airport (RJFU) |
| Time | Latitude | Longitude | Altitude | Speed | Heading |
|---|---|---|---|---|---|
| 2026-04-29 20:02 | 31.57397 | 116.65859 | 35237 ft | 588 kts | 69° |
| 2026-04-29 20:02 | 31.59755 | 116.73344 | 35248 ft | 589 kts | 69° |
| 2026-04-29 20:03 | 31.63048 | 116.83807 | 35250 ft | 591 kts | 69° |
| 2026-04-29 20:03 | 31.65919 | 116.92862 | 35251 ft | 589 kts | 69° |
| 2026-04-29 20:04 | 31.68808 | 117.01975 | 35252 ft | 591 kts | 69° |
| 2026-04-29 20:04 | 31.71609 | 117.10972 | 35254 ft | 592 kts | 70° |
| 2026-04-29 20:05 | 31.74408 | 117.20042 | 35251 ft | 591 kts | 70° |
| 2026-04-29 20:05 | 31.76862 | 117.29215 | 35252 ft | 590 kts | 82° |
| 2026-04-29 20:06 | 31.77181 | 117.38825 | 35255 ft | 586 kts | 97° |
| 2026-04-29 20:06 | 31.76463 | 117.48253 | 35254 ft | 582 kts | 100° |
| 2026-04-29 20:07 | 31.75661 | 117.57742 | 35249 ft | 583 kts | 99° |
| 2026-04-29 20:07 | 31.74957 | 117.67224 | 35248 ft | 584 kts | 99° |
| 2026-04-29 20:08 | 31.74369 | 117.75114 | 35248 ft | 584 kts | 99° |
| 2026-04-29 20:08 | 31.73559 | 117.86175 | 35247 ft | 582 kts | 99° |
| 2026-04-29 20:09 | 31.72877 | 117.95631 | 35246 ft | 584 kts | 99° |
| 2026-04-29 20:09 | 31.72195 | 118.05055 | 35241 ft | 583 kts | 99° |
| 2026-04-29 20:10 | 31.71514 | 118.14508 | 35232 ft | 583 kts | 99° |
| 2026-04-29 20:10 | 31.70859 | 118.24050 | 35237 ft | 584 kts | 99° |
| 2026-04-29 20:11 | 31.70213 | 118.33481 | 35238 ft | 582 kts | 99° |
| 2026-04-29 20:11 | 31.69546 | 118.42986 | 35218 ft | 584 kts | 99° |
| 2026-04-29 20:12 | 31.68873 | 118.52454 | 35234 ft | 585 kts | 99° |
| 2026-04-29 20:12 | 31.68195 | 118.61918 | 35249 ft | 585 kts | 99° |
| 2026-04-29 20:13 | 31.67610 | 118.69835 | 35246 ft | 583 kts | 101° |
| 2026-04-29 20:13 | 31.67118 | 118.76141 | 35480 ft | 584 kts | 100° |
| 2026-04-29 20:13 | 31.66749 | 118.80893 | 35320 ft | 586 kts | 101° |
| 2026-04-29 20:14 | 31.66041 | 118.90327 | 35261 ft | 578 kts | 100° |
| 2026-04-29 20:14 | 31.65336 | 118.99731 | 35257 ft | 583 kts | 100° |
| 2026-04-29 20:15 | 31.64695 | 119.09272 | 35262 ft | 583 kts | 98° |
| 2026-04-29 20:15 | 31.64253 | 119.18769 | 35257 ft | 586 kts | 97° |
| 2026-04-29 20:16 | 31.63866 | 119.28384 | 35253 ft | 586 kts | 98° |
| 2026-04-29 20:16 | 31.63452 | 119.37970 | 35255 ft | 585 kts | 98° |
| 2026-04-29 20:17 | 31.63235 | 119.42744 | 35037 ft | 585 kts | 98° |
| 2026-04-29 20:17 | 31.63013 | 119.47520 | 35376 ft | 584 kts | 98° |
| 2026-04-29 20:17 | 31.62785 | 119.52295 | 35164 ft | 588 kts | 98° |
| 2026-04-29 20:17 | 31.62558 | 119.57059 | 35162 ft | 587 kts | 98° |
| 2026-04-29 20:18 | 31.62100 | 119.66587 | 35241 ft | 586 kts | 99° |
| 2026-04-29 20:18 | 31.61618 | 119.76109 | 35255 ft | 589 kts | 99° |
| 2026-04-29 20:19 | 31.61159 | 119.85706 | 35241 ft | 585 kts | 99° |
| 2026-04-29 20:19 | 31.60721 | 119.95180 | 35242 ft | 589 kts | 99° |
| 2026-04-29 20:20 | 31.60278 | 120.04683 | 35252 ft | 583 kts | 99° |
| 2026-04-29 20:20 | 31.59821 | 120.14229 | 35235 ft | 589 kts | 99° |
| 2026-04-29 20:21 | 31.59357 | 120.23805 | 35221 ft | 588 kts | 99° |
| 2026-04-29 20:21 | 31.58488 | 120.33234 | 35225 ft | 576 kts | 111° |
| 2026-04-29 20:22 | 31.56154 | 120.42078 | 35225 ft | 568 kts | 117° |
| 2026-04-29 20:22 | 31.53439 | 120.50770 | 35228 ft | 567 kts | 118° |
| 2026-04-29 20:23 | 31.50778 | 120.59426 | 35224 ft | 568 kts | 117° |
| 2026-04-29 20:23 | 31.48151 | 120.68138 | 35216 ft | 566 kts | 118° |
| 2026-04-29 20:24 | 31.45490 | 120.76845 | 35226 ft | 572 kts | 118° |
| 2026-04-29 20:24 | 31.42872 | 120.85499 | 35220 ft | 564 kts | 118° |
| 2026-04-29 20:25 | 31.40237 | 120.94212 | 35231 ft | 568 kts | 118° |
| 2026-04-29 20:25 | 31.38927 | 120.98556 | 35385 ft | 566 kts | 118° |
| 2026-04-29 20:25 | 31.37608 | 121.02909 | 35266 ft | 568 kts | 118° |
| 2026-04-29 20:26 | 31.35001 | 121.11507 | 35233 ft | 563 kts | 118° |
| 2026-04-29 20:26 | 31.32349 | 121.20110 | 35231 ft | 560 kts | 118° |
| 2026-04-29 20:27 | 31.30127 | 121.27258 | 35236 ft | 560 kts | 118° |
| 2026-04-29 20:27 | 31.27012 | 121.37180 | 35230 ft | 562 kts | 116° |
| 2026-04-29 20:28 | 31.24906 | 121.46085 | 35229 ft | 570 kts | 111° |
| 2026-04-29 20:28 | 31.22919 | 121.54989 | 35227 ft | 567 kts | 113° |
| 2026-04-29 20:29 | 31.20782 | 121.63908 | 35222 ft | 566 kts | 114° |
| 2026-04-29 20:29 | 31.18594 | 121.72682 | 35222 ft | 564 kts | 114° |
| 2026-04-29 20:30 | 31.17869 | 121.77219 | 35219 ft | 577 kts | 102° |
| 2026-04-29 20:30 | 31.17834 | 121.81893 | 35220 ft | 589 kts | 90° |
| 2026-04-29 20:30 | 31.19304 | 121.91357 | 35221 ft | 597 kts | 80° |
| 2026-04-29 20:31 | 31.21351 | 122.00731 | 35220 ft | 598 kts | 79° |
| 2026-04-29 20:31 | 31.23284 | 122.10132 | 35217 ft | 595 kts | 81° |
| 2026-04-29 20:32 | 31.25106 | 122.19622 | 35213 ft | 597 kts | 82° |
| 2026-04-29 20:32 | 31.26603 | 122.27555 | 35208 ft | 597 kts | 82° |
| 2026-04-29 20:33 | 31.28691 | 122.38626 | 35210 ft | 598 kts | 81° |
| 2026-04-29 20:33 | 31.30483 | 122.48086 | 35201 ft | 596 kts | 82° |
| 2026-04-29 20:34 | 31.32322 | 122.57613 | 35204 ft | 599 kts | 81° |
| 2026-04-29 20:34 | 31.34155 | 122.67132 | 35199 ft | 598 kts | 82° |
| 2026-04-29 20:35 | 31.35916 | 122.76566 | 35201 ft | 595 kts | 82° |
| 2026-04-29 20:35 | 31.37712 | 122.85990 | 35196 ft | 598 kts | 82° |
| 2026-04-29 20:36 | 31.39553 | 122.95428 | 35200 ft | 598 kts | 81° |
| 2026-04-29 20:36 | 31.41404 | 123.04941 | 35203 ft | 599 kts | 81° |
| 2026-04-29 20:37 | 31.43237 | 123.14418 | 35189 ft | 598 kts | 81° |
| 2026-04-29 20:37 | 31.45055 | 123.23876 | 35191 ft | 598 kts | 82° |
| 2026-04-29 20:38 | 31.46864 | 123.33324 | 35193 ft | 597 kts | 82° |
| 2026-04-29 20:38 | 31.48674 | 123.42824 | 35189 ft | 597 kts | 82° |
| 2026-04-29 20:39 | 31.50489 | 123.52263 | 35190 ft | 597 kts | 80° |
| 2026-04-29 20:39 | 31.52559 | 123.61659 | 35193 ft | 599 kts | 78° |
| 2026-04-29 20:40 | 31.54689 | 123.71108 | 35184 ft | 599 kts | 80° |
| 2026-04-29 20:40 | 31.56734 | 123.80482 | 35186 ft | 598 kts | 80° |
| 2026-04-29 20:41 | 31.58788 | 123.89893 | 35178 ft | 597 kts | 80° |
| 2026-04-29 20:41 | 31.60856 | 123.99355 | 35183 ft | 600 kts | 80° |
| 2026-04-29 20:42 | 31.62961 | 124.08796 | 35178 ft | 597 kts | 79° |
| 2026-04-29 20:42 | 31.65170 | 124.18024 | 35176 ft | 583 kts | 76° |
| 2026-04-29 20:43 | 31.67344 | 124.27123 | 35169 ft | 574 kts | 77° |
| 2026-04-29 20:43 | 31.69354 | 124.36047 | 35170 ft | 560 kts | 79° |
| 2026-04-29 20:44 | 31.71197 | 124.44797 | 35167 ft | 562 kts | 80° |
| 2026-04-29 20:44 | 31.72950 | 124.53590 | 35171 ft | 552 kts | 81° |
| 2026-04-29 20:45 | 31.74822 | 124.62363 | 35164 ft | 563 kts | 79° |
| 2026-04-29 20:45 | 31.75825 | 124.66896 | 35163 ft | 579 kts | 80° |
| 2026-04-29 20:45 | 31.76834 | 124.71538 | 35170 ft | 591 kts | 81° |
| 2026-04-29 20:46 | 31.78872 | 124.80991 | 35162 ft | 600 kts | 80° |
| 2026-04-29 20:46 | 31.80934 | 124.90476 | 35158 ft | 596 kts | 80° |
| 2026-04-29 20:47 | 31.82410 | 124.99977 | 35154 ft | 586 kts | 95° |
| 2026-04-29 20:47 | 31.81702 | 125.09348 | 35160 ft | 570 kts | 108° |
| 2026-04-29 20:48 | 31.80152 | 125.18401 | 35150 ft | 566 kts | 110° |
| 2026-04-29 20:48 | 31.78550 | 125.27433 | 35146 ft | 567 kts | 110° |
| 2026-04-29 20:49 | 31.77032 | 125.36462 | 35147 ft | 567 kts | 109° |
| 2026-04-29 20:49 | 31.75533 | 125.45559 | 35138 ft | 569 kts | 109° |
| 2026-04-29 20:50 | 31.74037 | 125.54642 | 35134 ft | 566 kts | 109° |
| 2026-04-29 20:50 | 31.72668 | 125.63766 | 35130 ft | 578 kts | 101° |
| 2026-04-29 20:51 | 31.72697 | 125.68539 | 35126 ft | 590 kts | 90° |
| 2026-04-29 20:51 | 31.73326 | 125.73299 | 35127 ft | 595 kts | 83° |
| 2026-04-29 20:51 | 31.75429 | 125.82701 | 35119 ft | 598 kts | 78° |
| 2026-04-29 20:52 | 31.77708 | 125.92091 | 35111 ft | 600 kts | 79° |
| 2026-04-29 20:52 | 31.79857 | 126.01553 | 35116 ft | 599 kts | 79° |
| 2026-04-29 20:53 | 31.81911 | 126.10953 | 35116 ft | 599 kts | 80° |
| 2026-04-29 20:53 | 31.83963 | 126.20413 | 35113 ft | 598 kts | 79° |
| 2026-04-29 20:54 | 31.86006 | 126.29823 | 35012 ft | 593 kts | 80° |
| 2026-04-29 20:54 | 31.87022 | 126.34515 | 35010 ft | 595 kts | 80° |
| 2026-04-29 20:55 | 31.89052 | 126.43906 | 35014 ft | 593 kts | 80° |
| 2026-04-29 20:55 | 31.91007 | 126.53291 | 35008 ft | 593 kts | 80° |
| 2026-04-29 20:56 | 31.93113 | 126.62697 | 34995 ft | 595 kts | 79° |
| 2026-04-29 20:56 | 31.95226 | 126.72074 | 34998 ft | 590 kts | 80° |
| 2026-04-29 20:57 | 31.97249 | 126.81381 | 34993 ft | 589 kts | 81° |
| 2026-04-29 20:57 | 31.99273 | 126.90699 | 34993 ft | 590 kts | 80° |
| 2026-04-29 20:58 | 32.01317 | 127.00075 | 34988 ft | 591 kts | 80° |
| 2026-04-29 20:58 | 32.03336 | 127.09338 | 34986 ft | 586 kts | 80° |
| 2026-04-29 20:59 | 32.06115 | 127.18472 | 34977 ft | 598 kts | 69° |
| 2026-04-29 20:59 | 32.07824 | 127.22941 | 34711 ft | 601 kts | 68° |
| 2026-04-29 20:59 | 32.09590 | 127.27402 | 34271 ft | 599 kts | 67° |
| 2026-04-29 20:59 | 32.11335 | 127.31822 | 33832 ft | 590 kts | 68° |
| 2026-04-29 21:00 | 32.13018 | 127.36157 | 33399 ft | 581 kts | 68° |
| 2026-04-29 21:00 | 32.14679 | 127.40505 | 32976 ft | 575 kts | 68° |
| 2026-04-29 21:00 | 32.16294 | 127.44790 | 32573 ft | 574 kts | 68° |
| 2026-04-29 21:00 | 32.17901 | 127.49081 | 32168 ft | 573 kts | 69° |
| 2026-04-29 21:01 | 32.19500 | 127.53360 | 31765 ft | 570 kts | 69° |
| 2026-04-29 21:01 | 32.21084 | 127.57602 | 31363 ft | 566 kts | 69° |
| 2026-04-29 21:01 | 32.22664 | 127.61830 | 30962 ft | 562 kts | 69° |
| 2026-04-29 21:01 | 32.24239 | 127.66050 | 30554 ft | 557 kts | 69° |
| 2026-04-29 21:02 | 32.25770 | 127.70205 | 30154 ft | 552 kts | 70° |
| 2026-04-29 21:02 | 32.27296 | 127.74371 | 29751 ft | 547 kts | 70° |
| 2026-04-29 21:02 | 32.28802 | 127.78474 | 29354 ft | 543 kts | 70° |
| 2026-04-29 21:02 | 32.30301 | 127.82539 | 28958 ft | 538 kts | 70° |
| 2026-04-29 21:03 | 32.31778 | 127.86536 | 28584 ft | 535 kts | 70° |
| 2026-04-29 21:03 | 32.33268 | 127.90560 | 28206 ft | 531 kts | 70° |
| 2026-04-29 21:03 | 32.34742 | 127.94546 | 27831 ft | 527 kts | 69° |
| 2026-04-29 21:03 | 32.36206 | 127.98507 | 27457 ft | 525 kts | 69° |
| 2026-04-29 21:04 | 32.37650 | 128.02414 | 27085 ft | 525 kts | 69° |
| 2026-04-29 21:04 | 32.39103 | 128.06351 | 26710 ft | 521 kts | 69° |
| 2026-04-29 21:04 | 32.40545 | 128.10261 | 26334 ft | 516 kts | 69° |
| 2026-04-29 21:04 | 32.41973 | 128.14140 | 25964 ft | 512 kts | 69° |
| 2026-04-29 21:05 | 32.43388 | 128.17990 | 25586 ft | 509 kts | 68° |
| 2026-04-29 21:05 | 32.44782 | 128.21785 | 25213 ft | 506 kts | 68° |
| 2026-04-29 21:05 | 32.46186 | 128.25612 | 24839 ft | 503 kts | 68° |
| 2026-04-29 21:05 | 32.47568 | 128.29387 | 24470 ft | 501 kts | 68° |
| 2026-04-29 21:06 | 32.48931 | 128.33115 | 24096 ft | 497 kts | 68° |
| 2026-04-29 21:06 | 32.50313 | 128.36899 | 23736 ft | 495 kts | 68° |
| 2026-04-29 21:06 | 32.51667 | 128.40605 | 23380 ft | 491 kts | 68° |
| 2026-04-29 21:06 | 32.53012 | 128.44298 | 23028 ft | 486 kts | 67° |
| 2026-04-29 21:07 | 32.54345 | 128.47957 | 22671 ft | 483 kts | 67° |
| 2026-04-29 21:07 | 32.55664 | 128.51581 | 22318 ft | 480 kts | 67° |
| 2026-04-29 21:07 | 32.56981 | 128.55205 | 21962 ft | 477 kts | 67° |
| 2026-04-29 21:07 | 32.58277 | 128.58781 | 21609 ft | 476 kts | 67° |
| 2026-04-29 21:08 | 32.59588 | 128.62396 | 21253 ft | 472 kts | 67° |
| 2026-04-29 21:08 | 32.60870 | 128.65938 | 20895 ft | 469 kts | 68° |
| 2026-04-29 21:08 | 32.62134 | 128.69479 | 20539 ft | 467 kts | 68° |
| 2026-04-29 21:08 | 32.63390 | 128.73018 | 20189 ft | 465 kts | 68° |
| 2026-04-29 21:09 | 32.64641 | 128.76521 | 19829 ft | 462 kts | 68° |
| 2026-04-29 21:09 | 32.65890 | 128.80002 | 19480 ft | 460 kts | 68° |
| 2026-04-29 21:09 | 32.67041 | 128.83546 | 19118 ft | 455 kts | 74° |
| 2026-04-29 21:09 | 32.67874 | 128.87103 | 18760 ft | 452 kts | 77° |
| 2026-04-29 21:10 | 32.68603 | 128.90738 | 18412 ft | 451 kts | 79° |
| 2026-04-29 21:10 | 32.69307 | 128.94357 | 18053 ft | 449 kts | 78° |
| 2026-04-29 21:10 | 32.70018 | 128.97960 | 17694 ft | 446 kts | 78° |
| 2026-04-29 21:10 | 32.70726 | 129.01469 | 17348 ft | 441 kts | 77° |
| 2026-04-29 21:11 | 32.71446 | 129.04999 | 17005 ft | 439 kts | 77° |
| 2026-04-29 21:11 | 32.72168 | 129.08527 | 16646 ft | 440 kts | 77° |
| 2026-04-29 21:11 | 32.72889 | 129.12044 | 16298 ft | 436 kts | 77° |
| 2026-04-29 21:11 | 32.73601 | 129.15530 | 15942 ft | 434 kts | 77° |
| 2026-04-29 21:12 | 32.74309 | 129.19002 | 15599 ft | 432 kts | 77° |
| 2026-04-29 21:12 | 32.75012 | 129.22447 | 15238 ft | 430 kts | 77° |
| 2026-04-29 21:12 | 32.75706 | 129.25862 | 14877 ft | 426 kts | 77° |
| 2026-04-29 21:12 | 32.76394 | 129.29256 | 14508 ft | 424 kts | 77° |
| 2026-04-29 21:13 | 32.77086 | 129.32674 | 14161 ft | 422 kts | 77° |
| 2026-04-29 21:13 | 32.77761 | 129.36015 | 13808 ft | 421 kts | 77° |
| 2026-04-29 21:13 | 32.78444 | 129.39395 | 13452 ft | 419 kts | 77° |
| 2026-04-29 21:13 | 32.79118 | 129.42737 | 13088 ft | 411 kts | 77° |
| 2026-04-29 21:14 | 32.79775 | 129.45991 | 12746 ft | 401 kts | 77° |
| 2026-04-29 21:14 | 32.80400 | 129.49089 | 12450 ft | 373 kts | 78° |
| 2026-04-29 21:14 | 32.80981 | 129.51981 | 12163 ft | 351 kts | 78° |
| 2026-04-29 21:14 | 32.81533 | 129.54744 | 11839 ft | 335 kts | 78° |
| 2026-04-29 21:15 | 32.82062 | 129.57396 | 11502 ft | 333 kts | 78° |
| 2026-04-29 21:15 | 32.82597 | 129.60080 | 11176 ft | 334 kts | 78° |
| 2026-04-29 21:15 | 32.83129 | 129.62747 | 10871 ft | 329 kts | 78° |
| 2026-04-29 21:15 | 32.83652 | 129.65372 | 10547 ft | 324 kts | 79° |
| 2026-04-29 21:16 | 32.84153 | 129.67947 | 10243 ft | 319 kts | 79° |
| 2026-04-29 21:16 | 32.84597 | 129.70480 | 10053 ft | 307 kts | 79° |
| 2026-04-29 21:16 | 32.85234 | 129.72829 | 9995 ft | 289 kts | 71° |
| 2026-04-29 21:16 | 32.85930 | 129.75058 | 9867 ft | 289 kts | 72° |
| 2026-04-29 21:17 | 32.86591 | 129.77322 | 10021 ft | 289 kts | 73° |
| 2026-04-29 21:17 | 32.87228 | 129.79613 | 9946 ft | 297 kts | 74° |
| 2026-04-29 21:17 | 32.87855 | 129.81920 | 9602 ft | 294 kts | 75° |
| 2026-04-29 21:17 | 32.88472 | 129.84198 | 9254 ft | 279 kts | 75° |
| 2026-04-29 21:18 | 32.89045 | 129.86310 | 8908 ft | 262 kts | 75° |
| 2026-04-29 21:18 | 32.89587 | 129.88316 | 8501 ft | 250 kts | 75° |
| 2026-04-29 21:18 | 32.89775 | 129.90280 | 8045 ft | 232 kts | 106° |
| 2026-04-29 21:18 | 32.89062 | 129.91873 | 7602 ft | 214 kts | 139° |
| 2026-04-29 21:19 | 32.87945 | 129.92990 | 7144 ft | 208 kts | 147° |
| 2026-04-29 21:19 | 32.86740 | 129.93918 | 6590 ft | 208 kts | 151° |
| 2026-04-29 21:19 | 32.85477 | 129.94774 | 6024 ft | 207 kts | 153° |
| 2026-04-29 21:19 | 32.84226 | 129.95573 | 5471 ft | 207 kts | 153° |
| 2026-04-29 21:20 | 32.82950 | 129.96365 | 4973 ft | 201 kts | 153° |
| 2026-04-29 21:20 | 32.81743 | 129.97107 | 4597 ft | 193 kts | 153° |
| 2026-04-29 21:20 | 32.80556 | 129.97829 | 4237 ft | 189 kts | 153° |
| 2026-04-29 21:20 | 32.79391 | 129.98535 | 4002 ft | 183 kts | 152° |
| 2026-04-29 21:21 | 32.78279 | 129.99211 | 3911 ft | 180 kts | 153° |
| 2026-04-29 21:21 | 32.77139 | 129.99901 | 3705 ft | 183 kts | 152° |
| 2026-04-29 21:21 | 32.76013 | 130.00581 | 3445 ft | 182 kts | 152° |
| 2026-04-29 21:21 | 32.74871 | 130.01273 | 3059 ft | 186 kts | 151° |
| 2026-04-29 21:22 | 32.73737 | 130.01982 | 2700 ft | 185 kts | 145° |
| 2026-04-29 21:22 | 32.73019 | 130.03134 | 2525 ft | 171 kts | 99° |
| 2026-04-29 21:22 | 32.73272 | 130.04477 | 2500 ft | 174 kts | 59° |
| 2026-04-29 21:22 | 32.73954 | 130.05705 | 2489 ft | 176 kts | 57° |
| 2026-04-29 21:23 | 32.74716 | 130.06821 | 2472 ft | 175 kts | 35° |
| 2026-04-29 21:23 | 32.75922 | 130.07101 | 2481 ft | 184 kts | 351° |
| 2026-04-29 21:23 | 32.77116 | 130.06529 | 2486 ft | 188 kts | 330° |
| 2026-04-29 21:23 | 32.78176 | 130.05646 | 2483 ft | 187 kts | 323° |
| 2026-04-29 21:24 | 32.79190 | 130.04666 | 2487 ft | 187 kts | 321° |
| 2026-04-29 21:24 | 32.80159 | 130.03657 | 2484 ft | 178 kts | 320° |
| 2026-04-29 21:24 | 32.81019 | 130.02734 | 2480 ft | 157 kts | 320° |
| 2026-04-29 21:24 | 32.81825 | 130.01871 | 2351 ft | 153 kts | 321° |
| 2026-04-29 21:25 | 32.82573 | 130.01071 | 2206 ft | 144 kts | 321° |
| 2026-04-29 21:25 | 32.83317 | 130.00279 | 1974 ft | 141 kts | 322° |
| 2026-04-29 21:25 | 32.84036 | 129.99512 | 1776 ft | 136 kts | 323° |
| 2026-04-29 21:25 | 32.84741 | 129.98763 | 1596 ft | 136 kts | 323° |
| 2026-04-29 21:26 | 32.85435 | 129.98022 | 1424 ft | 135 kts | 323° |
| 2026-04-29 21:26 | 32.86137 | 129.97278 | 1252 ft | 136 kts | 322° |
| 2026-04-29 21:26 | 32.86840 | 129.96527 | 1075 ft | 135 kts | 322° |
| 2026-04-29 21:26 | 32.87544 | 129.95775 | 887 ft | 134 kts | 322° |
| 2026-04-29 21:27 | 32.88001 | 129.95287 | 771 ft | 134 kts | 322° |
| 2026-04-29 21:27 | 32.88923 | 129.94304 | 529 ft | 133 kts | 322° |
| 2026-04-29 21:27 | 32.89612 | 129.93565 | 364 ft | 132 kts | 323° |
| 2026-04-29 21:27 | 32.90299 | 129.92844 | 174 ft | 134 kts | 322° |
| 2026-04-29 21:28 | 32.90990 | 129.92097 | 20 ft | 131 kts | 322° |
| 2026-04-29 21:28 | 32.91609 | 129.91438 | 6 ft | 96 kts | 319° |
| 2026-04-29 21:28 | 32.91846 | 129.91187 | 7 ft | 29 kts | 316° |
| 2026-04-29 21:28 | 32.91950 | 129.91106 | 7 ft | 14 kts | 10° |
| 2026-04-29 21:29 | 32.92019 | 129.91170 | 7 ft | 12 kts | 48° |
| 2026-04-29 21:29 | 32.92034 | 129.91240 | 7 ft | 6 kts | 113° |
| 2026-04-29 21:29 | 32.92003 | 129.91289 | 7 ft | 8 kts | 134° |
| 2026-04-29 21:29 | 32.91959 | 129.91341 | 7 ft | 9 kts | 138° |
| 2026-04-29 21:30 | 32.91888 | 129.91414 | 7 ft | 16 kts | 139° |
| 2026-04-29 21:30 | 32.91795 | 129.91515 | 7 ft | 19 kts | 139° |
| 2026-04-29 21:30 | 32.91685 | 129.91632 | 7 ft | 22 kts | 138° |
| 2026-04-29 21:30 | 32.91595 | 129.91737 | 7 ft | 12 kts | 111° |
| 2026-04-29 21:31 | 32.91611 | 129.91803 | 7 ft | 7 kts | 48° |
| 2026-04-29 21:31 | 32.91647 | 129.91850 | 7 ft | 7 kts | 47° |
| 2026-04-29 21:31 | 32.91661 | 129.91869 | 7 ft | 0 kts | 47° |